sensor_id;sensor_type;location;lat;lon;timestamp;P1;durP1;ratioP1;P2;durP2;ratioP2
16037;SDS011;8123;50.906;6.172;2022-11-20T00:01:06;48.77;;;21.30;;
16037;SDS011;8123;50.906;6.172;2022-11-20T00:03:33;52.00;;;21.07;;
16037;SDS011;8123;50.906;6.172;2022-11-20T00:05:59;49.27;;;21.10;;
16037;SDS011;8123;50.906;6.172;2022-11-20T00:08:26;45.50;;;20.50;;
16037;SDS011;8123;50.906;6.172;2022-11-20T00:10:51;53.27;;;23.37;;
16037;SDS011;8123;50.906;6.172;2022-11-20T00:13:17;56.43;;;22.00;;
16037;SDS011;8123;50.906;6.172;2022-11-20T00:15:42;46.80;;;21.10;;
16037;SDS011;8123;50.906;6.172;2022-11-20T00:18:08;56.33;;;22.33;;
16037;SDS011;8123;50.906;6.172;2022-11-20T00:20:34;60.40;;;22.47;;
16037;SDS011;8123;50.906;6.172;2022-11-20T00:22:59;59.47;;;24.57;;
16037;SDS011;8123;50.906;6.172;2022-11-20T00:25:25;54.27;;;20.47;;
16037;SDS011;8123;50.906;6.172;2022-11-20T00:27:50;49.30;;;22.57;;
16037;SDS011;8123;50.906;6.172;2022-11-20T00:30:16;54.23;;;21.70;;
16037;SDS011;8123;50.906;6.172;2022-11-20T00:32:42;48.07;;;21.10;;
16037;SDS011;8123;50.906;6.172;2022-11-20T00:35:07;52.07;;;21.90;;
16037;SDS011;8123;50.906;6.172;2022-11-20T00:37:33;52.43;;;22.33;;
16037;SDS011;8123;50.906;6.172;2022-11-20T00:39:59;48.63;;;21.37;;
16037;SDS011;8123;50.906;6.172;2022-11-20T00:42:24;54.90;;;23.40;;
16037;SDS011;8123;50.906;6.172;2022-11-20T00:44:50;49.47;;;22.50;;
16037;SDS011;8123;50.906;6.172;2022-11-20T00:47:15;49.40;;;21.07;;
16037;SDS011;8123;50.906;6.172;2022-11-20T00:49:41;56.03;;;21.53;;
16037;SDS011;8123;50.906;6.172;2022-11-20T00:52:07;60.67;;;23.83;;
16037;SDS011;8123;50.906;6.172;2022-11-20T00:54:32;48.93;;;21.90;;
16037;SDS011;8123;50.906;6.172;2022-11-20T00:56:58;47.93;;;21.33;;
16037;SDS011;8123;50.906;6.172;2022-11-20T00:59:23;58.70;;;21.60;;
16037;SDS011;8123;50.906;6.172;2022-11-20T01:01:49;49.50;;;20.07;;
16037;SDS011;8123;50.906;6.172;2022-11-20T01:04:15;53.93;;;23.17;;
16037;SDS011;8123;50.906;6.172;2022-11-20T01:06:40;48.40;;;21.00;;
16037;SDS011;8123;50.906;6.172;2022-11-20T01:09:07;47.10;;;20.20;;
16037;SDS011;8123;50.906;6.172;2022-11-20T01:11:40;45.27;;;19.13;;
16037;SDS011;8123;50.906;6.172;2022-11-20T01:14:09;48.80;;;21.50;;
16037;SDS011;8123;50.906;6.172;2022-11-20T01:16:43;42.60;;;21.10;;
16037;SDS011;8123;50.906;6.172;2022-11-20T01:19:11;45.10;;;20.30;;
16037;SDS011;8123;50.906;6.172;2022-11-20T01:21:42;43.80;;;20.10;;
16037;SDS011;8123;50.906;6.172;2022-11-20T01:24:12;44.63;;;20.67;;
16037;SDS011;8123;50.906;6.172;2022-11-20T01:26:40;38.73;;;18.30;;
16037;SDS011;8123;50.906;6.172;2022-11-20T01:29:07;45.50;;;21.00;;
16037;SDS011;8123;50.906;6.172;2022-11-20T01:31:37;42.53;;;19.93;;
16037;SDS011;8123;50.906;6.172;2022-11-20T01:34:04;44.07;;;20.20;;
16037;SDS011;8123;50.906;6.172;2022-11-20T01:36:32;40.50;;;20.53;;
16037;SDS011;8123;50.906;6.172;2022-11-20T01:39:00;43.90;;;20.50;;
16037;SDS011;8123;50.906;6.172;2022-11-20T01:41:29;51.40;;;21.30;;
16037;SDS011;8123;50.906;6.172;2022-11-20T01:44:16;49.80;;;20.90;;
16037;SDS011;8123;50.906;6.172;2022-11-20T01:46:52;43.30;;;19.53;;
16037;SDS011;8123;50.906;6.172;2022-11-20T01:49:37;45.00;;;20.00;;
16037;SDS011;8123;50.906;6.172;2022-11-20T01:52:10;43.03;;;19.27;;
16037;SDS011;8123;50.906;6.172;2022-11-20T01:54:48;44.40;;;20.37;;
16037;SDS011;8123;50.906;6.172;2022-11-20T01:57:36;47.57;;;20.87;;
16037;SDS011;8123;50.906;6.172;2022-11-20T02:00:04;46.10;;;20.63;;
16037;SDS011;8123;50.906;6.172;2022-11-20T02:02:32;45.70;;;20.47;;
16037;SDS011;8123;50.906;6.172;2022-11-20T02:05:00;45.27;;;20.90;;
16037;SDS011;8123;50.906;6.172;2022-11-20T02:07:43;49.07;;;22.63;;
16037;SDS011;8123;50.906;6.172;2022-11-20T02:10:09;40.90;;;19.17;;
16037;SDS011;8123;50.906;6.172;2022-11-20T02:12:36;42.80;;;20.50;;
16037;SDS011;8123;50.906;6.172;2022-11-20T02:15:20;50.80;;;20.90;;
16037;SDS011;8123;50.906;6.172;2022-11-20T02:17:46;50.53;;;22.60;;
16037;SDS011;8123;50.906;6.172;2022-11-20T02:20:11;53.97;;;21.20;;
16037;SDS011;8123;50.906;6.172;2022-11-20T02:25:42;45.23;;;20.77;;
16037;SDS011;8123;50.906;6.172;2022-11-20T02:28:09;45.17;;;20.80;;
16037;SDS011;8123;50.906;6.172;2022-11-20T02:30:35;47.10;;;19.97;;
16037;SDS011;8123;50.906;6.172;2022-11-20T02:33:01;54.73;;;22.07;;
16037;SDS011;8123;50.906;6.172;2022-11-20T02:37:56;45.27;;;21.00;;
16037;SDS011;8123;50.906;6.172;2022-11-20T02:40:24;48.93;;;20.87;;
16037;SDS011;8123;50.906;6.172;2022-11-20T02:42:53;42.77;;;20.60;;
16037;SDS011;8123;50.906;6.172;2022-11-20T02:45:20;42.33;;;19.80;;
16037;SDS011;8123;50.906;6.172;2022-11-20T02:47:46;42.37;;;20.57;;
16037;SDS011;8123;50.906;6.172;2022-11-20T02:50:11;59.73;;;21.60;;
16037;SDS011;8123;50.906;6.172;2022-11-20T02:52:37;44.80;;;21.40;;
16037;SDS011;8123;50.906;6.172;2022-11-20T02:55:03;59.93;;;21.70;;
16037;SDS011;8123;50.906;6.172;2022-11-20T02:57:29;48.63;;;21.30;;
16037;SDS011;8123;50.906;6.172;2022-11-20T02:59:55;49.10;;;22.17;;
16037;SDS011;8123;50.906;6.172;2022-11-20T03:02:20;47.17;;;22.07;;
16037;SDS011;8123;50.906;6.172;2022-11-20T03:04:46;55.03;;;22.93;;
16037;SDS011;8123;50.906;6.172;2022-11-20T03:07:12;49.40;;;20.93;;
16037;SDS011;8123;50.906;6.172;2022-11-20T03:09:37;47.27;;;21.43;;
16037;SDS011;8123;50.906;6.172;2022-11-20T03:12:04;57.60;;;22.70;;
16037;SDS011;8123;50.906;6.172;2022-11-20T03:14:30;51.43;;;22.97;;
16037;SDS011;8123;50.906;6.172;2022-11-20T03:16:56;52.83;;;21.43;;
16037;SDS011;8123;50.906;6.172;2022-11-20T03:19:22;52.03;;;22.83;;
16037;SDS011;8123;50.906;6.172;2022-11-20T03:21:48;48.73;;;21.37;;
16037;SDS011;8123;50.906;6.172;2022-11-20T03:24:13;51.67;;;21.20;;
16037;SDS011;8123;50.906;6.172;2022-11-20T03:26:39;53.13;;;23.23;;
16037;SDS011;8123;50.906;6.172;2022-11-20T03:29:05;51.63;;;22.80;;
16037;SDS011;8123;50.906;6.172;2022-11-20T03:31:32;53.20;;;22.20;;
16037;SDS011;8123;50.906;6.172;2022-11-20T03:34:00;54.30;;;21.10;;
16037;SDS011;8123;50.906;6.172;2022-11-20T03:36:27;45.77;;;22.30;;
16037;SDS011;8123;50.906;6.172;2022-11-20T03:38:53;46.50;;;21.10;;
16037;SDS011;8123;50.906;6.172;2022-11-20T03:41:21;42.53;;;19.60;;
16037;SDS011;8123;50.906;6.172;2022-11-20T03:43:48;38.73;;;19.10;;
16037;SDS011;8123;50.906;6.172;2022-11-20T03:46:15;39.30;;;18.60;;
16037;SDS011;8123;50.906;6.172;2022-11-20T03:48:41;37.27;;;18.23;;
16037;SDS011;8123;50.906;6.172;2022-11-20T03:51:11;39.53;;;17.70;;
16037;SDS011;8123;50.906;6.172;2022-11-20T03:53:42;39.70;;;19.80;;
16037;SDS011;8123;50.906;6.172;2022-11-20T03:56:09;39.87;;;19.60;;
16037;SDS011;8123;50.906;6.172;2022-11-20T03:58:36;42.50;;;19.20;;
16037;SDS011;8123;50.906;6.172;2022-11-20T04:01:15;37.60;;;20.90;;
16037;SDS011;8123;50.906;6.172;2022-11-20T04:03:46;40.07;;;19.80;;
16037;SDS011;8123;50.906;6.172;2022-11-20T04:06:13;45.50;;;19.30;;
16037;SDS011;8123;50.906;6.172;2022-11-20T04:08:40;34.37;;;19.00;;
16037;SDS011;8123;50.906;6.172;2022-11-20T04:11:07;38.93;;;19.13;;
16037;SDS011;8123;50.906;6.172;2022-11-20T04:13:40;36.07;;;19.07;;
16037;SDS011;8123;50.906;6.172;2022-11-20T04:16:07;38.30;;;18.93;;
16037;SDS011;8123;50.906;6.172;2022-11-20T04:18:34;39.27;;;17.37;;
16037;SDS011;8123;50.906;6.172;2022-11-20T04:21:00;33.23;;;18.90;;
16037;SDS011;8123;50.906;6.172;2022-11-20T04:23:26;33.63;;;17.43;;
16037;SDS011;8123;50.906;6.172;2022-11-20T04:25:52;39.40;;;18.60;;
16037;SDS011;8123;50.906;6.172;2022-11-20T04:28:18;49.23;;;18.37;;
16037;SDS011;8123;50.906;6.172;2022-11-20T04:30:44;39.83;;;18.47;;
16037;SDS011;8123;50.906;6.172;2022-11-20T04:33:09;44.77;;;20.13;;
16037;SDS011;8123;50.906;6.172;2022-11-20T04:35:35;42.73;;;19.03;;
16037;SDS011;8123;50.906;6.172;2022-11-20T04:38:01;39.77;;;18.60;;
16037;SDS011;8123;50.906;6.172;2022-11-20T04:40:27;39.30;;;20.37;;
16037;SDS011;8123;50.906;6.172;2022-11-20T04:42:53;43.50;;;18.80;;
16037;SDS011;8123;50.906;6.172;2022-11-20T04:45:20;41.30;;;19.53;;
16037;SDS011;8123;50.906;6.172;2022-11-20T04:47:45;39.40;;;19.90;;
16037;SDS011;8123;50.906;6.172;2022-11-20T04:50:11;41.07;;;19.53;;
16037;SDS011;8123;50.906;6.172;2022-11-20T04:52:37;38.07;;;19.40;;
16037;SDS011;8123;50.906;6.172;2022-11-20T04:55:02;45.17;;;20.90;;
16037;SDS011;8123;50.906;6.172;2022-11-20T04:57:29;47.53;;;22.47;;
16037;SDS011;8123;50.906;6.172;2022-11-20T04:59:54;42.03;;;19.40;;
16037;SDS011;8123;50.906;6.172;2022-11-20T05:02:20;50.20;;;19.30;;
16037;SDS011;8123;50.906;6.172;2022-11-20T05:04:46;37.67;;;17.97;;
16037;SDS011;8123;50.906;6.172;2022-11-20T05:07:11;44.57;;;19.10;;
16037;SDS011;8123;50.906;6.172;2022-11-20T05:09:37;44.13;;;19.33;;
16037;SDS011;8123;50.906;6.172;2022-11-20T05:12:03;50.80;;;20.77;;
16037;SDS011;8123;50.906;6.172;2022-11-20T05:14:28;46.50;;;19.97;;
16037;SDS011;8123;50.906;6.172;2022-11-20T05:16:54;41.83;;;19.47;;
16037;SDS011;8123;50.906;6.172;2022-11-20T05:19:20;36.00;;;18.90;;
16037;SDS011;8123;50.906;6.172;2022-11-20T05:21:45;37.40;;;19.50;;
16037;SDS011;8123;50.906;6.172;2022-11-20T05:24:11;51.47;;;21.47;;
16037;SDS011;8123;50.906;6.172;2022-11-20T05:26:37;48.87;;;22.83;;
16037;SDS011;8123;50.906;6.172;2022-11-20T05:29:02;58.33;;;21.73;;
16037;SDS011;8123;50.906;6.172;2022-11-20T05:31:28;62.97;;;22.10;;
16037;SDS011;8123;50.906;6.172;2022-11-20T05:33:54;62.30;;;23.70;;
16037;SDS011;8123;50.906;6.172;2022-11-20T05:36:21;60.17;;;22.77;;
16037;SDS011;8123;50.906;6.172;2022-11-20T05:38:47;64.60;;;22.73;;
16037;SDS011;8123;50.906;6.172;2022-11-20T05:41:14;61.57;;;22.47;;
16037;SDS011;8123;50.906;6.172;2022-11-20T05:43:42;64.10;;;22.63;;
16037;SDS011;8123;50.906;6.172;2022-11-20T05:46:10;60.77;;;23.00;;
16037;SDS011;8123;50.906;6.172;2022-11-20T05:48:37;64.90;;;23.53;;
16037;SDS011;8123;50.906;6.172;2022-11-20T05:51:05;58.20;;;24.00;;
16037;SDS011;8123;50.906;6.172;2022-11-20T05:53:33;66.43;;;26.20;;
16037;SDS011;8123;50.906;6.172;2022-11-20T05:56:09;69.30;;;24.00;;
16037;SDS011;8123;50.906;6.172;2022-11-20T05:58:37;68.07;;;22.83;;
16037;SDS011;8123;50.906;6.172;2022-11-20T06:01:20;59.70;;;23.00;;
16037;SDS011;8123;50.906;6.172;2022-11-20T06:03:47;57.23;;;22.90;;
16037;SDS011;8123;50.906;6.172;2022-11-20T06:06:15;57.57;;;24.40;;
16037;SDS011;8123;50.906;6.172;2022-11-20T06:08:42;57.47;;;23.40;;
16037;SDS011;8123;50.906;6.172;2022-11-20T06:11:09;50.47;;;23.33;;
16037;SDS011;8123;50.906;6.172;2022-11-20T06:13:37;53.03;;;24.03;;
16037;SDS011;8123;50.906;6.172;2022-11-20T06:16:02;62.70;;;26.43;;
16037;SDS011;8123;50.906;6.172;2022-11-20T06:18:29;63.00;;;25.53;;
16037;SDS011;8123;50.906;6.172;2022-11-20T06:23:29;66.63;;;25.80;;
16037;SDS011;8123;50.906;6.172;2022-11-20T06:25:55;70.37;;;25.27;;
16037;SDS011;8123;50.906;6.172;2022-11-20T06:28:21;65.60;;;25.87;;
16037;SDS011;8123;50.906;6.172;2022-11-20T06:30:47;72.73;;;25.23;;
16037;SDS011;8123;50.906;6.172;2022-11-20T06:33:12;63.50;;;24.17;;
16037;SDS011;8123;50.906;6.172;2022-11-20T06:35:38;60.70;;;24.67;;
16037;SDS011;8123;50.906;6.172;2022-11-20T06:38:04;54.57;;;22.03;;
16037;SDS011;8123;50.906;6.172;2022-11-20T06:40:29;56.87;;;23.30;;
16037;SDS011;8123;50.906;6.172;2022-11-20T06:42:55;65.47;;;23.30;;
16037;SDS011;8123;50.906;6.172;2022-11-20T06:45:21;65.10;;;21.30;;
16037;SDS011;8123;50.906;6.172;2022-11-20T06:47:46;59.77;;;22.90;;
16037;SDS011;8123;50.906;6.172;2022-11-20T06:50:12;60.80;;;23.20;;
16037;SDS011;8123;50.906;6.172;2022-11-20T06:52:38;77.73;;;24.63;;
16037;SDS011;8123;50.906;6.172;2022-11-20T06:55:04;61.47;;;23.27;;
16037;SDS011;8123;50.906;6.172;2022-11-20T06:57:29;70.67;;;25.60;;
16037;SDS011;8123;50.906;6.172;2022-11-20T06:59:55;63.40;;;23.30;;
16037;SDS011;8123;50.906;6.172;2022-11-20T07:02:21;62.30;;;26.20;;
16037;SDS011;8123;50.906;6.172;2022-11-20T07:04:46;67.10;;;25.00;;
16037;SDS011;8123;50.906;6.172;2022-11-20T07:07:12;49.90;;;20.70;;
16037;SDS011;8123;50.906;6.172;2022-11-20T07:09:37;48.23;;;21.60;;
16037;SDS011;8123;50.906;6.172;2022-11-20T07:12:03;45.70;;;18.30;;
16037;SDS011;8123;50.906;6.172;2022-11-20T07:14:29;45.23;;;20.27;;
16037;SDS011;8123;50.906;6.172;2022-11-20T07:16:54;43.27;;;17.43;;
16037;SDS011;8123;50.906;6.172;2022-11-20T07:19:20;43.37;;;19.33;;
16037;SDS011;8123;50.906;6.172;2022-11-20T07:21:45;49.93;;;19.20;;
16037;SDS011;8123;50.906;6.172;2022-11-20T07:24:11;40.43;;;18.00;;
16037;SDS011;8123;50.906;6.172;2022-11-20T07:26:37;43.87;;;21.00;;
16037;SDS011;8123;50.906;6.172;2022-11-20T07:29:02;47.00;;;19.33;;
16037;SDS011;8123;50.906;6.172;2022-11-20T07:31:28;43.53;;;18.00;;
16037;SDS011;8123;50.906;6.172;2022-11-20T07:33:54;45.13;;;19.83;;
16037;SDS011;8123;50.906;6.172;2022-11-20T07:36:19;46.67;;;18.30;;
16037;SDS011;8123;50.906;6.172;2022-11-20T07:38:45;35.73;;;17.07;;
16037;SDS011;8123;50.906;6.172;2022-11-20T07:41:11;36.93;;;16.83;;
16037;SDS011;8123;50.906;6.172;2022-11-20T07:43:36;46.43;;;17.33;;
16037;SDS011;8123;50.906;6.172;2022-11-20T07:46:02;33.37;;;16.63;;
16037;SDS011;8123;50.906;6.172;2022-11-20T07:48:28;34.30;;;14.37;;
16037;SDS011;8123;50.906;6.172;2022-11-20T07:50:55;35.57;;;16.40;;
16037;SDS011;8123;50.906;6.172;2022-11-20T07:53:21;44.63;;;15.67;;
16037;SDS011;8123;50.906;6.172;2022-11-20T07:55:48;29.27;;;15.47;;
16037;SDS011;8123;50.906;6.172;2022-11-20T07:58:19;37.70;;;15.37;;
16037;SDS011;8123;50.906;6.172;2022-11-20T08:00:45;34.17;;;14.50;;
16037;SDS011;8123;50.906;6.172;2022-11-20T08:03:11;36.00;;;17.07;;
16037;SDS011;8123;50.906;6.172;2022-11-20T08:05:37;34.83;;;16.77;;
16037;SDS011;8123;50.906;6.172;2022-11-20T08:08:03;39.10;;;17.00;;
16037;SDS011;8123;50.906;6.172;2022-11-20T08:10:29;36.60;;;16.50;;
16037;SDS011;8123;50.906;6.172;2022-11-20T08:12:54;42.37;;;17.40;;
16037;SDS011;8123;50.906;6.172;2022-11-20T08:15:39;44.43;;;17.30;;
16037;SDS011;8123;50.906;6.172;2022-11-20T08:18:11;48.97;;;17.87;;
16037;SDS011;8123;50.906;6.172;2022-11-20T08:20:37;41.40;;;17.17;;
16037;SDS011;8123;50.906;6.172;2022-11-20T08:23:04;55.00;;;17.97;;
16037;SDS011;8123;50.906;6.172;2022-11-20T08:25:31;42.50;;;17.27;;
16037;SDS011;8123;50.906;6.172;2022-11-20T08:27:59;44.70;;;18.60;;
16037;SDS011;8123;50.906;6.172;2022-11-20T08:30:26;48.90;;;20.40;;
16037;SDS011;8123;50.906;6.172;2022-11-20T08:32:52;46.97;;;18.80;;
16037;SDS011;8123;50.906;6.172;2022-11-20T08:35:19;49.60;;;19.93;;
16037;SDS011;8123;50.906;6.172;2022-11-20T08:37:48;61.33;;;22.97;;
16037;SDS011;8123;50.906;6.172;2022-11-20T08:40:14;52.20;;;22.57;;
16037;SDS011;8123;50.906;6.172;2022-11-20T08:42:47;69.70;;;22.50;;
16037;SDS011;8123;50.906;6.172;2022-11-20T08:45:13;50.50;;;21.97;;
16037;SDS011;8123;50.906;6.172;2022-11-20T08:47:39;57.83;;;21.40;;
16037;SDS011;8123;50.906;6.172;2022-11-20T08:50:05;58.70;;;22.10;;
16037;SDS011;8123;50.906;6.172;2022-11-20T08:52:31;55.03;;;23.47;;
16037;SDS011;8123;50.906;6.172;2022-11-20T08:54:56;54.50;;;22.80;;
16037;SDS011;8123;50.906;6.172;2022-11-20T08:57:22;61.50;;;24.10;;
16037;SDS011;8123;50.906;6.172;2022-11-20T08:59:48;53.63;;;21.53;;
16037;SDS011;8123;50.906;6.172;2022-11-20T09:02:14;57.67;;;22.00;;
16037;SDS011;8123;50.906;6.172;2022-11-20T09:04:40;53.97;;;23.10;;
16037;SDS011;8123;50.906;6.172;2022-11-20T09:07:06;50.87;;;21.47;;
16037;SDS011;8123;50.906;6.172;2022-11-20T09:09:31;49.97;;;19.83;;
16037;SDS011;8123;50.906;6.172;2022-11-20T09:11:57;52.13;;;22.50;;
16037;SDS011;8123;50.906;6.172;2022-11-20T09:14:23;50.50;;;22.57;;
16037;SDS011;8123;50.906;6.172;2022-11-20T09:16:54;47.60;;;19.40;;
16037;SDS011;8123;50.906;6.172;2022-11-20T09:19:20;47.93;;;20.40;;
16037;SDS011;8123;50.906;6.172;2022-11-20T09:21:46;50.17;;;21.03;;
16037;SDS011;8123;50.906;6.172;2022-11-20T09:24:11;50.97;;;20.83;;
16037;SDS011;8123;50.906;6.172;2022-11-20T09:26:37;48.20;;;19.47;;
16037;SDS011;8123;50.906;6.172;2022-11-20T09:29:03;49.70;;;21.27;;
16037;SDS011;8123;50.906;6.172;2022-11-20T09:31:28;48.53;;;19.97;;
16037;SDS011;8123;50.906;6.172;2022-11-20T09:33:54;51.03;;;20.80;;
16037;SDS011;8123;50.906;6.172;2022-11-20T09:36:20;47.73;;;20.00;;
16037;SDS011;8123;50.906;6.172;2022-11-20T09:38:46;48.37;;;20.03;;
16037;SDS011;8123;50.906;6.172;2022-11-20T09:44:21;50.40;;;19.30;;
16037;SDS011;8123;50.906;6.172;2022-11-20T09:47:11;47.53;;;19.43;;
16037;SDS011;8123;50.906;6.172;2022-11-20T09:56:17;46.83;;;16.77;;
16037;SDS011;8123;50.906;6.172;2022-11-20T09:58:45;55.43;;;20.60;;
16037;SDS011;8123;50.906;6.172;2022-11-20T10:01:15;48.30;;;20.13;;
16037;SDS011;8123;50.906;6.172;2022-11-20T10:03:57;44.03;;;18.80;;
16037;SDS011;8123;50.906;6.172;2022-11-20T10:06:44;52.40;;;21.40;;
16037;SDS011;8123;50.906;6.172;2022-11-20T10:09:22;48.20;;;20.50;;
16037;SDS011;8123;50.906;6.172;2022-11-20T10:17:33;45.53;;;21.20;;
16037;SDS011;8123;50.906;6.172;2022-11-20T10:23:04;50.27;;;19.40;;
16037;SDS011;8123;50.906;6.172;2022-11-20T10:31:02;46.17;;;19.30;;
16037;SDS011;8123;50.906;6.172;2022-11-20T10:33:41;60.20;;;21.67;;
16037;SDS011;8123;50.906;6.172;2022-11-20T10:36:21;55.30;;;20.97;;
16037;SDS011;8123;50.906;6.172;2022-11-20T10:39:01;61.13;;;22.20;;
16037;SDS011;8123;50.906;6.172;2022-11-20T10:41:33;53.70;;;23.13;;
16037;SDS011;8123;50.906;6.172;2022-11-20T10:44:09;56.50;;;23.60;;
16037;SDS011;8123;50.906;6.172;2022-11-20T10:47:04;54.57;;;20.70;;
16037;SDS011;8123;50.906;6.172;2022-11-20T10:49:35;57.03;;;22.00;;
16037;SDS011;8123;50.906;6.172;2022-11-20T10:55:06;75.40;;;28.97;;
16037;SDS011;8123;50.906;6.172;2022-11-20T11:00:41;66.13;;;22.80;;
16037;SDS011;8123;50.906;6.172;2022-11-20T11:03:24;59.60;;;22.50;;
16037;SDS011;8123;50.906;6.172;2022-11-20T11:08:36;60.63;;;24.67;;
16037;SDS011;8123;50.906;6.172;2022-11-20T11:11:46;59.63;;;23.17;;
16037;SDS011;8123;50.906;6.172;2022-11-20T11:14:04;65.03;;;22.17;;
16037;SDS011;8123;50.906;6.172;2022-11-20T11:16:34;49.13;;;23.63;;
16037;SDS011;8123;50.906;6.172;2022-11-20T11:19:17;63.40;;;21.27;;
16037;SDS011;8123;50.906;6.172;2022-11-20T11:21:50;62.07;;;23.50;;
16037;SDS011;8123;50.906;6.172;2022-11-20T11:27:01;68.03;;;25.87;;
16037;SDS011;8123;50.906;6.172;2022-11-20T11:29:32;67.07;;;24.60;;
16037;SDS011;8123;50.906;6.172;2022-11-20T11:32:05;62.17;;;23.33;;
16037;SDS011;8123;50.906;6.172;2022-11-20T11:34:32;67.20;;;24.43;;
16037;SDS011;8123;50.906;6.172;2022-11-20T11:36:59;56.47;;;24.13;;
16037;SDS011;8123;50.906;6.172;2022-11-20T11:39:27;58.80;;;23.50;;
16037;SDS011;8123;50.906;6.172;2022-11-20T11:41:54;49.23;;;21.53;;
16037;SDS011;8123;50.906;6.172;2022-11-20T11:44:21;57.07;;;23.67;;
16037;SDS011;8123;50.906;6.172;2022-11-20T11:58:24;47.23;;;21.00;;
16037;SDS011;8123;50.906;6.172;2022-11-20T12:01:09;38.50;;;17.80;;
16037;SDS011;8123;50.906;6.172;2022-11-20T12:03:38;51.83;;;19.70;;
16037;SDS011;8123;50.906;6.172;2022-11-20T12:06:14;47.40;;;21.90;;
16037;SDS011;8123;50.906;6.172;2022-11-20T12:11:20;43.17;;;19.30;;
16037;SDS011;8123;50.906;6.172;2022-11-20T12:13:58;45.70;;;19.50;;
16037;SDS011;8123;50.906;6.172;2022-11-20T12:16:39;43.60;;;19.23;;
16037;SDS011;8123;50.906;6.172;2022-11-20T12:19:12;37.33;;;19.27;;
16037;SDS011;8123;50.906;6.172;2022-11-20T12:30:11;51.33;;;21.13;;
16037;SDS011;8123;50.906;6.172;2022-11-20T12:44:32;54.50;;;22.10;;
16037;SDS011;8123;50.906;6.172;2022-11-20T12:47:49;48.10;;;21.00;;
16037;SDS011;8123;50.906;6.172;2022-11-20T12:50:40;55.33;;;22.07;;
16037;SDS011;8123;50.906;6.172;2022-11-20T13:01:32;61.40;;;23.30;;
16037;SDS011;8123;50.906;6.172;2022-11-20T13:07:17;53.67;;;24.77;;
16037;SDS011;8123;50.906;6.172;2022-11-20T13:09:46;48.60;;;23.07;;
16037;SDS011;8123;50.906;6.172;2022-11-20T13:17:41;48.70;;;21.60;;
16037;SDS011;8123;50.906;6.172;2022-11-20T13:20:16;60.90;;;23.03;;
16037;SDS011;8123;50.906;6.172;2022-11-20T13:22:45;35.77;;;18.70;;
16037;SDS011;8123;50.906;6.172;2022-11-20T13:25:34;11.53;;;7.30;;
16037;SDS011;8123;50.906;6.172;2022-11-20T13:28:24;14.73;;;7.73;;
16037;SDS011;8123;50.906;6.172;2022-11-20T13:30:51;9.83;;;4.97;;
16037;SDS011;8123;50.906;6.172;2022-11-20T13:33:31;8.33;;;4.80;;
16037;SDS011;8123;50.906;6.172;2022-11-20T13:36:21;13.53;;;5.33;;
16037;SDS011;8123;50.906;6.172;2022-11-20T13:38:50;8.33;;;4.63;;
16037;SDS011;8123;50.906;6.172;2022-11-20T13:41:27;16.47;;;5.63;;
16037;SDS011;8123;50.906;6.172;2022-11-20T13:44:04;7.00;;;4.60;;
16037;SDS011;8123;50.906;6.172;2022-11-20T13:46:40;7.87;;;4.80;;
16037;SDS011;8123;50.906;6.172;2022-11-20T13:49:15;4.80;;;4.03;;
16037;SDS011;8123;50.906;6.172;2022-11-20T13:51:43;14.50;;;5.20;;
16037;SDS011;8123;50.906;6.172;2022-11-20T13:54:25;6.40;;;3.93;;
16037;SDS011;8123;50.906;6.172;2022-11-20T13:56:56;6.67;;;3.27;;
16037;SDS011;8123;50.906;6.172;2022-11-20T14:02:15;13.40;;;3.40;;
16037;SDS011;8123;50.906;6.172;2022-11-20T14:04:46;6.10;;;3.77;;
16037;SDS011;8123;50.906;6.172;2022-11-20T14:07:15;4.63;;;2.53;;
16037;SDS011;8123;50.906;6.172;2022-11-20T14:09:53;8.67;;;3.67;;
16037;SDS011;8123;50.906;6.172;2022-11-20T14:12:22;4.70;;;3.10;;
16037;SDS011;8123;50.906;6.172;2022-11-20T14:14:53;12.70;;;2.67;;
16037;SDS011;8123;50.906;6.172;2022-11-20T14:17:29;4.00;;;3.00;;
16037;SDS011;8123;50.906;6.172;2022-11-20T14:20:00;9.53;;;3.13;;
16037;SDS011;8123;50.906;6.172;2022-11-20T14:22:28;5.03;;;2.90;;
16037;SDS011;8123;50.906;6.172;2022-11-20T14:25:18;5.60;;;3.53;;
16037;SDS011;8123;50.906;6.172;2022-11-20T14:27:55;2.97;;;2.10;;
16037;SDS011;8123;50.906;6.172;2022-11-20T14:30:23;2.80;;;2.53;;
16037;SDS011;8123;50.906;6.172;2022-11-20T14:33:01;6.00;;;2.57;;
16037;SDS011;8123;50.906;6.172;2022-11-20T14:35:34;4.10;;;2.57;;
16037;SDS011;8123;50.906;6.172;2022-11-20T14:38:08;5.77;;;2.63;;
16037;SDS011;8123;50.906;6.172;2022-11-20T14:40:40;7.20;;;3.43;;
16037;SDS011;8123;50.906;6.172;2022-11-20T14:45:58;6.03;;;2.87;;
16037;SDS011;8123;50.906;6.172;2022-11-20T14:48:34;4.50;;;3.23;;
16037;SDS011;8123;50.906;6.172;2022-11-20T14:51:03;2.17;;;1.97;;
16037;SDS011;8123;50.906;6.172;2022-11-20T14:53:29;12.70;;;2.07;;
16037;SDS011;8123;50.906;6.172;2022-11-20T14:55:56;2.23;;;2.10;;
16037;SDS011;8123;50.906;6.172;2022-11-20T14:58:25;8.07;;;2.20;;
16037;SDS011;8123;50.906;6.172;2022-11-20T15:01:00;5.83;;;2.50;;
16037;SDS011;8123;50.906;6.172;2022-11-20T15:03:34;3.30;;;2.93;;
16037;SDS011;8123;50.906;6.172;2022-11-20T15:06:04;6.17;;;3.73;;
16037;SDS011;8123;50.906;6.172;2022-11-20T15:08:31;3.03;;;2.83;;
16037;SDS011;8123;50.906;6.172;2022-11-20T15:10:57;6.40;;;3.73;;
16037;SDS011;8123;50.906;6.172;2022-11-20T15:13:31;2.90;;;2.33;;
16037;SDS011;8123;50.906;6.172;2022-11-20T15:16:02;4.53;;;2.47;;
16037;SDS011;8123;50.906;6.172;2022-11-20T15:21:02;4.00;;;3.70;;
16037;SDS011;8123;50.906;6.172;2022-11-20T15:23:31;14.60;;;3.20;;
16037;SDS011;8123;50.906;6.172;2022-11-20T15:25:56;9.93;;;3.07;;
16037;SDS011;8123;50.906;6.172;2022-11-20T15:28:26;3.27;;;2.70;;
16037;SDS011;8123;50.906;6.172;2022-11-20T15:30:58;12.80;;;3.17;;
16037;SDS011;8123;50.906;6.172;2022-11-20T15:33:24;7.70;;;2.87;;
16037;SDS011;8123;50.906;6.172;2022-11-20T15:35:50;9.50;;;5.97;;
16037;SDS011;8123;50.906;6.172;2022-11-20T15:38:15;25.00;;;10.13;;
16037;SDS011;8123;50.906;6.172;2022-11-20T15:40:41;25.90;;;15.40;;
16037;SDS011;8123;50.906;6.172;2022-11-20T15:43:07;22.03;;;12.43;;
16037;SDS011;8123;50.906;6.172;2022-11-20T15:45:37;12.93;;;9.43;;
16037;SDS011;8123;50.906;6.172;2022-11-20T15:48:16;19.77;;;9.63;;
16037;SDS011;8123;50.906;6.172;2022-11-20T15:50:52;13.30;;;8.33;;
16037;SDS011;8123;50.906;6.172;2022-11-20T15:53:18;10.00;;;7.70;;
16037;SDS011;8123;50.906;6.172;2022-11-20T15:55:44;11.40;;;4.20;;
16037;SDS011;8123;50.906;6.172;2022-11-20T15:58:10;8.73;;;3.30;;
16037;SDS011;8123;50.906;6.172;2022-11-20T16:00:35;3.23;;;2.93;;
16037;SDS011;8123;50.906;6.172;2022-11-20T16:03:01;4.07;;;3.57;;
16037;SDS011;8123;50.906;6.172;2022-11-20T16:05:30;4.40;;;3.70;;
16037;SDS011;8123;50.906;6.172;2022-11-20T16:07:55;3.40;;;3.10;;
16037;SDS011;8123;50.906;6.172;2022-11-20T16:10:22;4.33;;;3.80;;
16037;SDS011;8123;50.906;6.172;2022-11-20T16:12:48;8.70;;;3.63;;
16037;SDS011;8123;50.906;6.172;2022-11-20T16:15:33;2.93;;;2.60;;
16037;SDS011;8123;50.906;6.172;2022-11-20T16:18:12;3.30;;;3.07;;
16037;SDS011;8123;50.906;6.172;2022-11-20T16:20:40;10.83;;;3.30;;
16037;SDS011;8123;50.906;6.172;2022-11-20T16:23:05;4.70;;;3.00;;
16037;SDS011;8123;50.906;6.172;2022-11-20T16:25:31;2.73;;;2.33;;
16037;SDS011;8123;50.906;6.172;2022-11-20T16:27:57;4.77;;;2.20;;
16037;SDS011;8123;50.906;6.172;2022-11-20T16:30:23;3.50;;;1.50;;
16037;SDS011;8123;50.906;6.172;2022-11-20T16:32:49;3.83;;;2.60;;